createdAt,value
2019-03-15T00:00:42.200Z,95799.87
2019-03-15T00:03:49.123Z,95803.30
2019-03-15T00:06:59.833Z,95806.73
2019-03-15T00:10:07.330Z,95812.97
2019-03-15T00:13:14.276Z,95813.40
2019-03-15T00:16:21.178Z,95818.36
2019-03-15T00:19:28.104Z,95820.31
2019-03-15T00:22:35.152Z,95837.14
2019-03-15T00:25:41.990Z,95836.65
2019-03-15T00:28:48.945Z,95837.73
2019-03-15T00:32:00.400Z,95849.53
2019-03-15T00:35:09.127Z,95858.23
2019-03-15T00:38:16.632Z,95872.88
2019-03-15T00:41:23.826Z,95875.70
2019-03-15T00:44:30.759Z,95875.19
2019-03-15T00:47:39.002Z,95890.30
2019-03-15T00:50:45.939Z,95887.98
2019-03-15T00:53:54.686Z,95899.06
2019-03-15T00:57:07.614Z,95898.95
2019-03-15T01:00:15.230Z,95885.47
2019-03-15T01:03:22.173Z,95889.91
2019-03-15T01:06:29.044Z,95901.80
2019-03-15T01:09:37.034Z,95897.64
2019-03-15T01:12:45.467Z,95914.83
2019-03-15T01:15:55.287Z,95922.84
2019-03-15T01:19:05.962Z,95925.13
2019-03-15T01:22:14.079Z,95934.97
2019-03-15T01:25:24.077Z,95948.34
2019-03-15T01:28:31.003Z,95947.93
2019-03-15T01:31:37.877Z,95954.95
2019-03-15T01:34:44.891Z,95955.70
2019-03-15T01:37:51.820Z,95960.78
2019-03-15T01:41:00.382Z,95961.61
2019-03-15T01:44:07.363Z,95961.30
2019-03-15T01:47:14.387Z,95963.94
2019-03-15T01:50:21.382Z,95958.75
2019-03-15T01:53:28.242Z,95962.19
2019-03-15T01:56:35.288Z,95961.89
2019-03-15T01:59:43.813Z,95957.22
2019-03-15T02:02:50.731Z,95964.94
2019-03-15T02:05:58.941Z,95964.05
2019-03-15T02:09:09.296Z,95971.82
2019-03-15T02:12:15.946Z,95970.39
2019-03-15T02:15:22.902Z,95968.91
2019-03-15T02:18:29.761Z,95969.80
2019-03-15T02:21:36.779Z,95976.47
2019-03-15T02:24:43.658Z,95982.97
2019-03-15T02:27:50.626Z,95980.38
2019-03-15T02:30:59.222Z,95977.58
2019-03-15T02:34:06.152Z,95980.75
2019-03-15T02:37:13.095Z,95979.95
2019-03-15T02:40:20.220Z,95986.56
2019-03-15T02:43:27.105Z,95983.13
2019-03-15T02:46:34.187Z,95983.97
2019-03-15T02:49:41.148Z,95985.08
2019-03-15T02:52:48.285Z,95982.22
2019-03-15T02:55:55.325Z,95985.91
2019-03-15T02:59:02.405Z,95989.94
2019-03-15T03:02:12.484Z,96000.36
2019-03-15T03:05:19.433Z,95998.04
2019-03-15T03:08:26.338Z,96003.66
2019-03-15T03:11:33.135Z,95998.93
2019-03-15T03:14:41.176Z,96010.11
2019-03-15T03:17:48.165Z,96006.44
2019-03-15T03:20:55.386Z,96019.88
2019-03-15T03:24:02.511Z,96018.34
2019-03-15T03:27:12.609Z,96020.72
2019-03-15T03:30:19.456Z,96021.16
2019-03-15T03:33:26.514Z,96029.02
2019-03-15T03:36:33.520Z,96036.44
2019-03-15T03:39:40.495Z,96033.84
2019-03-15T03:42:47.555Z,96031.25
2019-03-15T03:45:55.785Z,96041.14
2019-03-15T03:49:04.302Z,96038.33
2019-03-15T03:52:11.377Z,96045.58
2019-03-15T03:55:18.281Z,96040.71
2019-03-15T03:58:25.220Z,96030.82
2019-03-15T04:01:32.186Z,96033.69
2019-03-15T04:04:39.188Z,96045.22
2019-03-15T04:07:46.069Z,96049.70
2019-03-15T04:10:53.453Z,96048.43
2019-03-15T04:14:03.236Z,96054.47
2019-03-15T04:17:11.424Z,96051.50
2019-03-15T04:20:19.790Z,96051.61
2019-03-15T04:23:26.710Z,96059.66
2019-03-15T04:26:33.607Z,96059.38
2019-03-15T04:29:40.780Z,96071.08
2019-03-15T04:32:47.602Z,96070.48
2019-03-15T04:35:54.849Z,96063.50
2019-03-15T04:39:01.816Z,96068.47
2019-03-15T04:42:08.932Z,96066.88
2019-03-15T04:45:15.916Z,96076.29
2019-03-15T04:48:22.855Z,96080.20
2019-03-15T04:51:32.911Z,96078.17
2019-03-15T04:54:39.892Z,96076.59
2019-03-15T04:57:46.769Z,96080.83
2019-03-15T05:00:55.623Z,96089.97
2019-03-15T05:04:02.578Z,96098.92
2019-03-15T05:07:11.563Z,96095.68
2019-03-15T05:10:18.505Z,96104.72
2019-03-15T05:13:25.459Z,96107.05
2019-03-15T05:16:32.370Z,96095.91
2019-03-15T05:19:40.383Z,96098.29
2019-03-15T05:22:47.446Z,96099.23
2019-03-15T05:25:54.460Z,96108.12
2019-03-15T05:29:01.401Z,96104.20
2019-03-15T05:32:08.625Z,96100.12
2019-03-15T05:35:15.673Z,96100.37
2019-03-15T05:38:22.805Z,96103.61
2019-03-15T05:41:29.737Z,96097.09
2019-03-15T05:44:36.639Z,96106.86
2019-03-15T05:47:43.596Z,96114.71
2019-03-15T05:50:50.518Z,96113.95
2019-03-15T05:53:58.621Z,96125.60
2019-03-15T05:57:05.645Z,96123.06
2019-03-15T06:00:13.809Z,96118.92
2019-03-15T06:03:21.784Z,96127.16
2019-03-15T06:06:28.664Z,96132.51
2019-03-15T06:09:35.794Z,96131.70
2019-03-15T06:12:42.709Z,96129.87
2019-03-15T06:15:53.287Z,96134.19
2019-03-15T06:19:01.910Z,96124.22
2019-03-15T06:22:09.440Z,96128.72
2019-03-15T06:25:16.353Z,96129.58
2019-03-15T06:28:23.232Z,96136.19
2019-03-15T06:31:30.118Z,96139.48
2019-03-15T06:34:39.425Z,96132.55
2019-03-15T06:37:45.722Z,96137.02
2019-03-15T06:40:52.958Z,96147.02
2019-03-15T06:44:00.102Z,96142.63
2019-03-15T06:47:07.094Z,96125.19
2019-03-15T06:50:14.062Z,96122.45
2019-03-15T06:53:22.837Z,96131.69
2019-03-15T06:56:29.726Z,96119.64
2019-03-15T06:59:37.253Z,96127.58
2019-03-15T07:02:46.400Z,96127.00
2019-03-15T07:05:55.490Z,96126.09
2019-03-15T07:09:05.122Z,96129.06
2019-03-15T07:12:12.155Z,96124.66
2019-03-15T07:15:19.047Z,96119.73
2019-03-15T07:18:26.016Z,96111.55
2019-03-15T07:21:32.999Z,96114.59
2019-03-15T07:24:43.543Z,96115.16
2019-03-15T07:27:49.311Z,96115.53
2019-03-15T07:30:57.748Z,96114.79
2019-03-15T07:34:04.641Z,96110.17
2019-03-15T07:37:11.581Z,96117.25
2019-03-15T07:40:18.581Z,96118.81
2019-03-15T07:43:25.596Z,96117.55
2019-03-15T07:46:32.573Z,96121.13
2019-03-15T07:49:39.600Z,96126.05
2019-03-15T07:52:46.529Z,96111.02
2019-03-15T07:55:58.237Z,96115.98
2019-03-15T07:59:04.930Z,96126.05
2019-03-15T08:02:11.856Z,96114.66
2019-03-15T08:05:18.875Z,96118.85
2019-03-15T08:08:25.935Z,96124.31
2019-03-15T08:11:32.886Z,96125.88
2019-03-15T08:14:40.509Z,96125.61
2019-03-15T08:17:47.640Z,96130.88
2019-03-15T08:20:54.962Z,96135.27
2019-03-15T08:24:03.574Z,96139.43
2019-03-15T08:27:12.479Z,96135.27
2019-03-15T08:30:19.485Z,96124.98
2019-03-15T08:33:26.455Z,96122.83
2019-03-15T08:36:33.502Z,96122.47
2019-03-15T08:39:40.301Z,96123.61
2019-03-15T08:42:47.385Z,96126.03
2019-03-15T08:45:54.488Z,96131.53
2019-03-15T08:49:01.643Z,96122.81
2019-03-15T08:52:08.528Z,96117.15
2019-03-15T08:55:15.528Z,96103.81
2019-03-15T08:58:22.684Z,96109.95
2019-03-15T09:01:29.611Z,96116.12
2019-03-15T09:04:36.512Z,96109.04
2019-03-15T09:07:43.446Z,96109.93
2019-03-15T09:10:50.572Z,96120.19
2019-03-15T09:13:57.445Z,96105.63
2019-03-15T09:17:04.924Z,96107.85
2019-03-15T09:20:11.913Z,96104.83
2019-03-15T09:23:18.923Z,96108.41
2019-03-15T09:26:25.906Z,96109.11
2019-03-15T09:29:33.540Z,96113.69
2019-03-15T09:32:40.479Z,96105.00
2019-03-15T09:35:47.730Z,96109.00
2019-03-15T09:38:55.747Z,96099.91
2019-03-15T09:42:02.687Z,96111.92
2019-03-15T09:45:11.699Z,96102.12
2019-03-15T09:48:18.637Z,96095.39
2019-03-15T09:51:25.622Z,96099.88
2019-03-15T09:54:32.715Z,96098.22
2019-03-15T09:57:39.688Z,96104.94
2019-03-15T10:00:47.050Z,96101.09
2019-03-15T10:03:54.443Z,96096.95
2019-03-15T10:07:01.711Z,96109.91
2019-03-15T10:10:13.823Z,96115.40
2019-03-15T10:13:19.701Z,96107.50
2019-03-15T10:16:26.756Z,96095.64
2019-03-15T10:19:33.791Z,96104.38
2019-03-15T10:22:41.871Z,96109.28
2019-03-15T10:25:51.283Z,96100.05
2019-03-15T10:28:59.758Z,96102.02
2019-03-15T10:32:06.931Z,96101.02
2019-03-15T10:35:14.097Z,96093.19
2019-03-15T10:38:22.968Z,96099.70
2019-03-15T10:41:30.041Z,96097.33
2019-03-15T10:44:37.232Z,96097.09
2019-03-15T10:47:44.197Z,96098.00
2019-03-15T10:50:51.214Z,96093.64
2019-03-15T10:53:58.286Z,96102.02
2019-03-15T10:57:05.570Z,96092.00
2019-03-15T11:00:15.693Z,96091.83
2019-03-15T11:03:22.639Z,96095.42
2019-03-15T11:06:29.590Z,96094.68
2019-03-15T11:09:36.600Z,96086.86
2019-03-15T11:12:43.559Z,96087.32
2019-03-15T11:15:50.563Z,96075.63
2019-03-15T11:18:59.407Z,96072.95
2019-03-15T11:22:06.569Z,96069.94
2019-03-15T11:25:13.655Z,96062.75
2019-03-15T11:28:20.669Z,96050.28
2019-03-15T11:31:27.492Z,96047.09
2019-03-15T11:34:34.856Z,96038.04
2019-03-15T11:37:41.788Z,96039.52
2019-03-15T11:40:48.823Z,96032.84
2019-03-15T11:43:56.240Z,96025.87
2019-03-15T11:47:03.607Z,96020.77
2019-03-15T11:50:11.944Z,96019.16
2019-03-15T11:53:19.237Z,96014.87
2019-03-15T11:56:27.342Z,96014.80
2019-03-15T11:59:36.247Z,95994.19
2019-03-15T12:02:43.257Z,95982.05
2019-03-15T12:05:50.315Z,95991.21
2019-03-15T12:08:57.454Z,95983.80
2019-03-15T12:12:04.517Z,95983.46
2019-03-15T12:15:11.881Z,95984.60
2019-03-15T12:18:18.938Z,95970.33
2019-03-15T12:21:25.927Z,95973.88
2019-03-15T12:24:34.064Z,95969.42
2019-03-15T12:27:41.046Z,95976.73
2019-03-15T12:30:48.074Z,95970.50
2019-03-15T12:33:57.575Z,95962.63
2019-03-15T12:37:05.015Z,95948.55
2019-03-15T12:40:12.188Z,95946.30
2019-03-15T12:43:19.118Z,95944.66
2019-03-15T12:46:26.007Z,95943.48
2019-03-15T12:49:32.972Z,95938.23
2019-03-15T12:52:47.338Z,95929.22
2019-03-15T12:55:48.651Z,95927.47
2019-03-15T12:58:56.065Z,95929.68
2019-03-15T13:02:03.295Z,95922.64
2019-03-15T13:05:10.258Z,95911.34
2019-03-15T13:08:17.475Z,95907.59
2019-03-15T13:11:24.419Z,95897.42
2019-03-15T13:14:31.461Z,95895.38
2019-03-15T13:17:38.773Z,95896.45
2019-03-15T13:20:45.596Z,95892.20
2019-03-15T13:23:52.900Z,95900.53
2019-03-15T13:27:07.478Z,95887.34
2019-03-15T13:30:11.115Z,95880.94
2019-03-15T13:33:20.683Z,95874.31
2019-03-15T13:36:27.011Z,95863.31
2019-03-15T13:39:34.309Z,95858.00
2019-03-15T13:42:41.158Z,95855.67
2019-03-15T13:45:48.688Z,95855.62
2019-03-15T13:48:57.203Z,95845.17
2019-03-15T13:52:04.263Z,95837.28
2019-03-15T13:55:11.830Z,95847.66
2019-03-15T13:58:18.870Z,95839.31
2019-03-15T14:01:25.830Z,95846.23
2019-03-15T14:04:33.409Z,95851.41
2019-03-15T14:07:40.432Z,95843.75
2019-03-15T14:10:49.454Z,95838.13
2019-03-15T14:13:57.502Z,95849.68
2019-03-15T14:17:05.911Z,95835.27
2019-03-15T14:20:16.118Z,95840.74
2019-03-15T14:23:23.346Z,95836.08
2019-03-15T14:26:30.285Z,95834.45
2019-03-15T14:29:43.311Z,95833.77
2019-03-15T14:32:50.529Z,95839.61
2019-03-15T14:35:58.869Z,95843.60
2019-03-15T14:39:08.076Z,95835.86
2019-03-15T14:42:16.202Z,95841.20
2019-03-15T14:45:23.316Z,95832.05
2019-03-15T14:48:30.510Z,95822.97
2019-03-15T14:51:37.429Z,95815.91
2019-03-15T14:54:45.519Z,95808.55
2019-03-15T14:57:53.867Z,95813.51
2019-03-15T15:01:00.896Z,95805.69
2019-03-15T15:04:08.884Z,95799.77
2019-03-15T15:07:16.019Z,95819.96
2019-03-15T15:10:23.059Z,95802.95
2019-03-15T15:13:30.204Z,95806.06
2019-03-15T15:16:37.154Z,95799.27
2019-03-15T15:19:44.462Z,95799.75
2019-03-15T15:22:51.433Z,95803.95
2019-03-15T15:26:01.683Z,95798.31
2019-03-15T15:29:08.620Z,95799.76
2019-03-15T15:32:15.645Z,95801.16
2019-03-15T15:35:22.626Z,95799.52
2019-03-15T15:38:29.719Z,95804.02
2019-03-15T15:41:36.661Z,95799.36
2019-03-15T15:44:46.678Z,95805.55
2019-03-15T15:47:53.997Z,95806.38
2019-03-15T15:51:00.867Z,95791.27
2019-03-15T15:54:07.852Z,95784.98
2019-03-15T15:57:15.015Z,95784.36
2019-03-15T16:00:22.058Z,95783.80
2019-03-15T16:03:29.078Z,95781.13
2019-03-15T16:06:36.129Z,95784.83
2019-03-15T16:09:43.205Z,95780.95
2019-03-15T16:12:50.307Z,95774.56
2019-03-15T16:15:57.375Z,95772.16
2019-03-15T16:19:04.482Z,95768.46
2019-03-15T16:22:11.422Z,95759.69
2019-03-15T16:25:18.267Z,95765.18
2019-03-15T16:28:31.562Z,95767.98
2019-03-15T16:31:34.012Z,95768.26
2019-03-15T16:34:41.249Z,95752.91
2019-03-15T16:37:48.162Z,95749.98
2019-03-15T16:40:56.645Z,95747.23
2019-03-15T16:44:03.557Z,95757.59
2019-03-15T16:47:11.026Z,95744.68
2019-03-15T16:50:18.143Z,95735.72
2019-03-15T16:53:26.527Z,95728.75
2019-03-15T16:56:33.543Z,95728.22
2019-03-15T16:59:41.509Z,95733.91
2019-03-15T17:02:48.408Z,95726.59
2019-03-15T17:05:55.360Z,95717.30
2019-03-15T17:09:02.462Z,95726.35
2019-03-15T17:12:10.026Z,95717.23
2019-03-15T17:15:19.856Z,95720.05
2019-03-15T17:18:26.917Z,95714.41
2019-03-15T17:21:36.246Z,95715.91
2019-03-15T17:24:43.366Z,95712.88
2019-03-15T17:27:52.570Z,95707.67
2019-03-15T17:31:09.595Z,95707.31
2019-03-15T17:34:08.944Z,95715.08
2019-03-15T17:37:19.036Z,95704.22
2019-03-15T17:40:25.983Z,95697.47
2019-03-15T17:43:33.080Z,95695.83
2019-03-15T17:46:40.045Z,95691.08
2019-03-15T17:49:47.504Z,95697.28
2019-03-15T17:52:54.768Z,95700.47
2019-03-15T17:56:01.964Z,95700.73
2019-03-15T17:59:12.889Z,95702.22
2019-03-15T18:02:20.260Z,95682.67
2019-03-15T18:05:27.194Z,95688.42
2019-03-15T18:08:34.195Z,95688.16
2019-03-15T18:11:41.280Z,95688.15
2019-03-15T18:14:48.370Z,95689.79
2019-03-15T18:18:00.023Z,95685.68
2019-03-15T18:21:05.960Z,95682.30
2019-03-15T18:24:12.954Z,95686.77
2019-03-15T18:27:20.117Z,95689.23
2019-03-15T18:30:27.127Z,95695.36
2019-03-15T18:33:34.157Z,95685.96
2019-03-15T18:36:45.422Z,95687.77
2019-03-15T18:39:52.507Z,95683.76
2019-03-15T18:42:59.552Z,95690.33
2019-03-15T18:46:06.526Z,95674.45
2019-03-15T18:49:13.486Z,95670.80
2019-03-15T18:52:20.644Z,95672.25
2019-03-15T18:55:27.717Z,95680.84
2019-03-15T18:58:34.746Z,95673.89
2019-03-15T19:01:41.733Z,95676.09
2019-03-15T19:04:48.725Z,95669.52
2019-03-15T19:07:55.867Z,95678.19
2019-03-15T19:11:02.907Z,95689.05
2019-03-15T19:14:12.419Z,95683.21
2019-03-15T19:17:19.799Z,95783.17
2019-03-15T19:20:29.609Z,95809.08
2019-03-15T19:23:36.586Z,95830.34
2019-03-15T19:26:44.732Z,95811.75
2019-03-15T19:29:54.050Z,95815.66
2019-03-15T19:33:01.684Z,95830.23
2019-03-15T19:36:08.876Z,95842.00
2019-03-15T19:39:15.903Z,95845.98
2019-03-15T19:42:23.026Z,95855.51
2019-03-15T19:45:30.081Z,95864.98
2019-03-15T19:48:37.212Z,95860.17
2019-03-15T19:51:44.259Z,95864.28
2019-03-15T19:55:00.493Z,95876.84
2019-03-15T19:58:02.039Z,95865.59
2019-03-15T20:01:09.117Z,95879.84
2019-03-15T20:04:16.246Z,95888.16
2019-03-15T20:07:23.294Z,95884.63
2019-03-15T20:10:31.477Z,95898.25
2019-03-15T20:13:41.955Z,95905.67
2019-03-15T20:16:48.967Z,95906.51
2019-03-15T20:19:57.351Z,95905.11
2019-03-15T20:23:04.570Z,95901.06
2019-03-15T20:26:11.545Z,95898.02
2019-03-15T20:29:18.652Z,95912.16
2019-03-15T20:32:25.684Z,95909.14
2019-03-15T20:35:35.649Z,95925.11
2019-03-15T20:38:42.924Z,95915.59
2019-03-15T20:41:51.625Z,95926.18
2019-03-15T20:45:14.434Z,95932.73
2019-03-15T20:48:21.604Z,95951.22
2019-03-15T20:51:28.636Z,95960.24
2019-03-15T20:54:36.683Z,95966.14
2019-03-15T20:57:48.100Z,95974.72
2019-03-15T21:00:57.678Z,95973.75
2019-03-15T21:04:04.994Z,95967.88
2019-03-15T21:07:11.893Z,95968.02
2019-03-15T21:10:19.089Z,95976.59
2019-03-15T21:13:25.996Z,95975.69
2019-03-15T21:16:32.920Z,95972.78
2019-03-15T21:19:40.552Z,95977.80
2019-03-15T21:22:47.661Z,95982.92
2019-03-15T21:25:55.104Z,96000.81
2019-03-15T21:29:02.126Z,95992.67
2019-03-15T21:32:09.221Z,95995.66
2019-03-15T21:35:16.443Z,95994.71
2019-03-15T21:38:23.366Z,96000.34
2019-03-15T21:41:31.243Z,96003.62
2019-03-15T21:44:38.179Z,96008.84
2019-03-15T21:47:45.153Z,96017.13
2019-03-15T21:50:52.240Z,96030.19
2019-03-15T21:53:59.368Z,96029.86
2019-03-15T21:57:06.316Z,96035.66
2019-03-15T22:00:15.009Z,96042.16
2019-03-15T22:03:22.218Z,96050.41
2019-03-15T22:06:30.256Z,96045.58
2019-03-15T22:09:37.143Z,96038.95
2019-03-15T22:12:44.161Z,96042.78
2019-03-15T22:15:53.249Z,96053.29
2019-03-15T22:19:00.396Z,96052.20
2019-03-15T22:22:07.452Z,96059.84
2019-03-15T22:25:14.441Z,96060.61
2019-03-15T22:28:21.425Z,96077.41
2019-03-15T22:31:28.304Z,96083.41
2019-03-15T22:34:35.255Z,96077.22
2019-03-15T22:37:42.186Z,96086.57
2019-03-15T22:40:50.992Z,96092.06
2019-03-15T22:43:57.997Z,96103.25
2019-03-15T22:47:05.142Z,96105.42
2019-03-15T22:50:12.406Z,96106.63
2019-03-15T22:53:20.800Z,96112.75
2019-03-15T22:56:28.181Z,96110.57
2019-03-15T22:59:35.129Z,96127.06
2019-03-15T23:02:45.098Z,96121.29
2019-03-15T23:05:54.476Z,96110.89
2019-03-15T23:09:03.253Z,96130.27
2019-03-15T23:12:10.229Z,96129.55
2019-03-15T23:15:17.288Z,96131.66
2019-03-15T23:18:24.312Z,96152.70
2019-03-15T23:21:31.328Z,96151.92
2019-03-15T23:24:38.286Z,96161.42
2019-03-15T23:27:45.387Z,96154.47
2019-03-15T23:30:54.571Z,96159.13
2019-03-15T23:34:01.778Z,96159.75
2019-03-15T23:37:08.801Z,96149.95
2019-03-15T23:40:15.810Z,96163.05
2019-03-15T23:43:22.838Z,96165.59
2019-03-15T23:46:29.901Z,96186.45
2019-03-15T23:49:36.943Z,96196.03
2019-03-15T23:52:43.987Z,96191.07
2019-03-15T23:55:55.104Z,96201.61
2019-03-15T23:59:04.012Z,96198.78
